Сообщение об ошибке

  • Warning: ini_set(): Headers already sent. You cannot change the session module's ini settings at this time in drupal_environment_initialize() (line 699 of /home/a/auditpro/2.auditpro.beget.tech/public_html/st/includes/bootstrap.inc).
  • Warning: ini_set(): Headers already sent. You cannot change the session module's ini settings at this time in drupal_environment_initialize() (line 700 of /home/a/auditpro/2.auditpro.beget.tech/public_html/st/includes/bootstrap.inc).
  • Warning: ini_set(): Headers already sent. You cannot change the session module's ini settings at this time in drupal_environment_initialize() (line 701 of /home/a/auditpro/2.auditpro.beget.tech/public_html/st/includes/bootstrap.inc).
  • Warning: ini_set(): Headers already sent. You cannot change the session module's ini settings at this time in drupal_environment_initialize() (line 704 of /home/a/auditpro/2.auditpro.beget.tech/public_html/st/includes/bootstrap.inc).
  • Warning: ini_set(): Headers already sent. You cannot change the session module's ini settings at this time in drupal_environment_initialize() (line 706 of /home/a/auditpro/2.auditpro.beget.tech/public_html/st/includes/bootstrap.inc).
  • Warning: ini_set(): Headers already sent. You cannot change the session module's ini settings at this time in include_once() (line 290 of /home/a/auditpro/2.auditpro.beget.tech/public_html/st/sites/default/settings.php).
  • Warning: ini_set(): Headers already sent. You cannot change the session module's ini settings at this time in include_once() (line 291 of /home/a/auditpro/2.auditpro.beget.tech/public_html/st/sites/default/settings.php).
  • Warning: ini_set(): Headers already sent. You cannot change the session module's ini settings at this time in include_once() (line 299 of /home/a/auditpro/2.auditpro.beget.tech/public_html/st/sites/default/settings.php).
  • Warning: ini_set(): Headers already sent. You cannot change the session module's ini settings at this time in include_once() (line 306 of /home/a/auditpro/2.auditpro.beget.tech/public_html/st/sites/default/settings.php).
  • Warning: ini_set(): Headers already sent. You cannot change the session module's ini settings at this time in drupal_settings_initialize() (line 826 of /home/a/auditpro/2.auditpro.beget.tech/public_html/st/includes/bootstrap.inc).
  • Warning: ini_set(): Headers already sent. You cannot change the session module's ini settings at this time in drupal_settings_initialize() (line 835 of /home/a/auditpro/2.auditpro.beget.tech/public_html/st/includes/bootstrap.inc).
  • Warning: session_name(): Cannot change session name when headers already sent in drupal_settings_initialize() (line 838 of /home/a/auditpro/2.auditpro.beget.tech/public_html/st/includes/bootstrap.inc).

Тим

СКИДКИ НА СМАРТФОНЫ!

Карта отелей и гостиниц, располагающихся рядом с аэропортом Тим :

Тим Курская область 51° 37' 14.52" N, 37° 8' 51.8388" E
Код аэродрома ИКАО
UUOI
Код аэродрома RU
УУОИ
Координаты
N51.62070° E037.14773°
Превышение над уровнем моря
257
Основная полоса
14/32
Курс магнитный
134,6/314,6
Длина основной ВПП
420
Ширина основной ВПП
18
Покрытие основной ВПП
Твёрдое (асфальт)
Освещение ВПП
Нет
Тип: 
Аэродром
Класс аэродрома: 
Принадлежность: 
ГА
Статус: 
Недействующий
Сайт: 
E-mail аэродрома: 
Страна: 
Россия
Регион: 
Курская область
Город: 
Дополнительная информация: 
Площадка АХР. Используется автомобилистами.

Скидки на навигаторы!

Найти трансфер

С помощью этой формы Вы можете найти трансфер из аэропорта Тим в город, аэропорт или вокзал:

Погода в аэропортах:

Авиационная погода в Якутске

Регион: 
Погода METAR: 
UEEE 301930Z 00000MPS 0200 0150SW R23L/0650N FG VV002 M47/M52 Q1014 R23L/490150 NOSIG RMK QBB060 QFE752
Время наблюдения
2023-01-30T19:30:00Z
Температура C
-47.0
Точка росы
-52.0
Направление ветра
0
Скорость ветра (узлы)
0
Метео видимость
0.12
Облачность
OVX
Нижняя граница облачности (футы)
0
Явления погоды
FG
Условия полета
LIFR
Аэропорт подробнее: 
FG – туман (небо не видно, температура воздуха выше нуля или ноль);

Авиационная погода в Москва - Шереметьево

Погода METAR: 
UUEE 301930Z 20007MPS 5000 -SN OVC016 M01/M04 Q0994 R24L/590245 R24C/590245 NOSIG
Время наблюдения
2023-01-30T19:30:00Z
Температура C
-1.0
Точка росы
-4.0
Направление ветра
200
Скорость ветра (узлы)
14
Метео видимость
3.11
Облачность
OVC
Нижняя граница облачности (футы)
1600
Явления погоды
-SN
Условия полета
MVFR
Аэропорт подробнее: 
OVC – сплошная облачность;
-SN – слабый снег;

Авиационная погода в Стамбуле

Регион: 
Погода METAR: 
LTFM 301920Z 33006KT 9999 -SHRA SCT012 BKN025 02/01 Q1014 NOSIG RMK RWY17L 31004KT RWY34L 31006KT RWY16R 27003KT RWY36 34006KT 310V020 RWY18 31006KT
Время наблюдения
2023-01-30T19:20:00Z
Температура C
2.0
Точка росы
1.0
Направление ветра
330
Скорость ветра (узлы)
6
Метео видимость
6.21
Облачность
SCT
BKN
Нижняя граница облачности (футы)
1200
2500
Явления погоды
-SHRA
Условия полета
MVFR
SCT – разбросанная отдельная облачность; BKN – значительная (рассеянная, разорванная) облачность;
-SHRA - слабый ливневой дождь;

Авиационная погода в Москве - Остафьево

Погода METAR: 
UUMO 301930Z 21006MPS 6000 -SN OVC019 M01/M04 Q0996 R25/520148 NOSIG RMK QFE732/0976
Время наблюдения
2023-01-30T19:30:00Z
Температура C
-1.0
Точка росы
-4.0
Направление ветра
210
Скорость ветра (узлы)
12
Метео видимость
3.73
Облачность
OVC
Нижняя граница облачности (футы)
1900
Явления погоды
-SN
Условия полета
MVFR
Аэропорт подробнее: 
OVC – сплошная облачность;
-SN – слабый снег;